Time;durP1;ratioP1;P1;durP2;ratioP2;P2;SDS_P1;SDS_P2;PMS_P1;PMS_P2;Temp;Humidity;BMP_temperature;BMP_pressure;BME280_temperature;BME280_humidity;BME280_pressure;Samples;Min_cycle;Max_cycle;Signal;HPM_P1;HPM_P2
2023/05/05 00:01:41;;;;;;;8.93;5.80;;;13.40;70.30;;;;;;5053471;28;20225;-71
2023/05/05 00:04:30;;;;;;;9.23;5.53;;;13.40;70.90;;;;;;5070188;28;20234;-71
2023/05/05 00:07:19;;;;;;;9.65;5.40;;;13.60;70.00;;;;;;5061489;28;20232;-69
2023/05/05 00:10:08;;;;;;;10.65;5.85;;;13.50;69.50;;;;;;5049759;28;20758;-71
2023/05/05 00:12:57;;;;;;;7.95;5.50;;;13.40;69.60;;;;;;5059580;28;20228;-73
2023/05/05 00:15:48;;;;;;;9.13;5.22;;;13.50;69.30;;;;;;5052831;28;20763;-71
2023/05/05 00:18:38;;;;;;;8.80;5.43;;;13.40;69.50;;;;;;5066484;28;20233;-70
2023/05/05 00:21:27;;;;;;;8.25;5.20;;;13.60;69.80;;;;;;5071325;28;20694;-71
2023/05/05 00:24:16;;;;;;;10.18;5.38;;;13.50;69.40;;;;;;5043906;28;20235;-71
2023/05/05 00:27:05;;;;;;;10.85;5.65;;;13.50;69.60;;;;;;5048641;28;20229;-72
2023/05/05 00:29:54;;;;;;;7.80;5.05;;;13.50;69.70;;;;;;5070291;28;20774;-71
2023/05/05 00:32:42;;;;;;;11.07;5.78;;;13.60;69.70;;;;;;5077910;28;20241;-71
2023/05/05 00:35:33;;;;;;;10.85;5.40;;;13.40;69.30;;;;;;5077005;28;20242;-71
2023/05/05 00:38:22;;;;;;;8.32;5.03;;;13.50;69.60;;;;;;5079226;28;20239;-71
2023/05/05 00:41:10;;;;;;;9.88;5.38;;;13.40;69.20;;;;;;5069323;28;20705;-71
2023/05/05 00:43:59;;;;;;;7.70;5.28;;;13.40;69.80;;;;;;5076663;28;20932;-71
2023/05/05 00:46:48;;;;;;;8.80;5.55;;;13.40;70.20;;;;;;5075603;28;20250;-71
2023/05/05 00:49:38;;;;;;;8.90;5.40;;;13.40;69.80;;;;;;5084473;28;20318;-71
2023/05/05 00:52:28;;;;;;;9.07;5.32;;;13.40;70.00;;;;;;5103035;27;20231;-71
2023/05/05 00:55:18;;;;;;;7.82;4.68;;;13.30;69.40;;;;;;5077300;28;20777;-71
2023/05/05 00:58:07;;;;;;;12.23;5.75;;;13.40;69.60;;;;;;5078897;28;20236;-71
2023/05/05 01:00:55;;;;;;;9.18;5.60;;;13.40;69.80;;;;;;5076604;28;20277;-70
2023/05/05 01:03:44;;;;;;;8.45;5.18;;;13.50;70.00;;;;;;5078328;28;20242;-71
2023/05/05 01:06:43;;;;;;;10.63;6.20;;;13.30;69.70;;;;;;5082708;28;20227;-71
2023/05/05 01:09:39;;;;;;;9.30;5.72;;;13.40;70.30;;;;;;5084137;28;20215;-71
2023/05/05 01:12:37;;;;;;;10.13;5.75;;;13.40;71.20;;;;;;5070738;28;20215;-71
2023/05/05 01:15:32;;;;;;;12.15;6.85;;;13.40;70.80;;;;;;5066950;28;20263;-71
2023/05/05 01:18:31;;;;;;;10.20;6.43;;;13.50;71.20;;;;;;5065380;28;20895;-72
2023/05/05 01:21:26;;;;;;;10.50;6.20;;;13.40;71.10;;;;;;5066440;28;20219;-72
2023/05/05 01:24:49;;;;;;;9.20;6.07;;;13.40;71.70;;;;;;5076472;28;20256;-71
2023/05/05 01:27:50;;;;;;;10.23;6.30;;;13.40;71.40;;;;;;5076084;28;20231;-71
2023/05/05 01:30:58;;;;;;;10.50;6.10;;;13.40;71.80;;;;;;5077609;28;20590;-71
2023/05/05 01:33:53;;;;;;;10.98;6.15;;;13.30;72.00;;;;;;5080513;28;20231;-72
2023/05/05 01:36:49;;;;;;;10.75;6.82;;;13.30;72.20;;;;;;5080122;28;20223;-70
2023/05/05 01:39:40;;;;;;;10.80;6.63;;;13.30;71.90;;;;;;5073526;28;20239;-73
2023/05/05 01:42:30;;;;;;;9.02;6.70;;;13.30;71.90;;;;;;5081409;28;20316;-71
2023/05/05 01:45:24;;;;;;;11.38;7.13;;;13.30;72.10;;;;;;5079201;28;20227;-69
2023/05/05 01:48:17;;;;;;;11.73;7.15;;;13.30;72.20;;;;;;5081326;28;20293;-70
2023/05/05 01:51:08;;;;;;;13.50;7.15;;;13.10;72.40;;;;;;5081359;28;20718;-71
2023/05/05 01:53:59;;;;;;;14.95;6.57;;;13.10;73.00;;;;;;5066643;28;20231;-71
2023/05/05 01:56:50;;;;;;;8.90;6.10;;;13.20;73.40;;;;;;5071780;28;20239;-71
2023/05/05 01:59:39;;;;;;;12.68;7.20;;;13.30;73.40;;;;;;5082057;28;20308;-72
2023/05/05 02:02:30;;;;;;;11.98;6.97;;;13.30;73.30;;;;;;5076728;28;20761;-71
2023/05/05 02:05:21;;;;;;;12.93;6.68;;;13.30;73.40;;;;;;5075751;28;20227;-72
2023/05/05 02:08:12;;;;;;;10.82;7.50;;;13.30;74.00;;;;;;5072100;28;20240;-70
2023/05/05 02:11:04;;;;;;;12.82;6.57;;;13.40;73.70;;;;;;5078080;28;20219;-70
2023/05/05 02:13:54;;;;;;;12.02;7.15;;;13.40;74.10;;;;;;5086205;28;20286;-70
2023/05/05 02:16:44;;;;;;;11.73;7.43;;;13.30;73.70;;;;;;5075331;28;20226;-69
2023/05/05 02:19:39;;;;;;;10.27;6.55;;;13.30;74.10;;;;;;5081463;28;20345;-70
2023/05/05 02:22:28;;;;;;;12.02;6.82;;;13.30;74.50;;;;;;5077902;28;20257;-71
2023/05/05 02:25:18;;;;;;;12.60;6.72;;;13.30;74.00;;;;;;5076350;28;20230;-71
2023/05/05 02:28:11;;;;;;;13.35;6.68;;;13.20;74.20;;;;;;5082725;28;20722;-72
2023/05/05 02:31:00;;;;;;;12.18;7.30;;;13.30;74.80;;;;;;5073587;28;20254;-73
2023/05/05 02:33:53;;;;;;;9.43;6.38;;;13.30;74.10;;;;;;5076043;28;20246;-73
2023/05/05 02:36:44;;;;;;;10.73;6.35;;;13.20;73.90;;;;;;5079259;28;20638;-72
2023/05/05 02:39:37;;;;;;;10.52;6.22;;;13.30;73.60;;;;;;5082936;28;20528;-71
2023/05/05 02:42:38;;;;;;;10.43;5.72;;;13.30;73.20;;;;;;5087148;28;20207;-71
2023/05/05 02:45:30;;;;;;;13.38;6.60;;;13.30;72.60;;;;;;5077521;28;20409;-72
2023/05/05 02:48:19;;;;;;;9.00;5.80;;;13.20;73.30;;;;;;5081204;28;20619;-73
2023/05/05 02:51:09;;;;;;;10.60;5.88;;;13.10;72.80;;;;;;5095776;28;20944;-72
2023/05/05 02:53:58;;;;;;;9.50;5.65;;;13.10;72.60;;;;;;5081336;28;20231;-72
2023/05/05 02:56:50;;;;;;;10.52;6.03;;;13.20;72.10;;;;;;5065475;28;20239;-72
2023/05/05 02:59:56;;;;;;;13.48;6.10;;;13.20;72.10;;;;;;5080982;28;20208;-72
2023/05/05 03:02:57;;;;;;;16.73;6.32;;;13.20;72.10;;;;;;5082267;28;20845;-72
2023/05/05 03:05:54;;;;;;;10.73;6.32;;;13.20;72.20;;;;;;5080241;28;20341;-72
2023/05/05 03:08:46;;;;;;;10.38;5.80;;;13.20;72.40;;;;;;5082311;28;20758;-71
2023/05/05 03:11:39;;;;;;;13.63;6.30;;;13.40;72.50;;;;;;5072283;28;20246;-72
2023/05/05 03:14:34;;;;;;;10.15;6.30;;;13.40;72.90;;;;;;5080319;28;20345;-72
2023/05/05 03:17:27;;;;;;;9.38;5.78;;;13.50;73.00;;;;;;5080305;28;20215;-72
2023/05/05 03:20:17;;;;;;;9.57;6.10;;;13.60;73.00;;;;;;5106077;27;20236;-72
2023/05/05 03:23:09;;;;;;;12.82;5.85;;;13.40;72.50;;;;;;5078758;28;20685;-73
2023/05/05 03:25:58;;;;;;;8.30;5.47;;;13.50;72.10;;;;;;5108218;27;20246;-72
2023/05/05 03:28:54;;;;;;;8.75;5.43;;;13.50;72.20;;;;;;5079085;28;20240;-72
2023/05/05 03:31:49;;;;;;;10.43;5.65;;;13.50;71.90;;;;;;5076598;28;20212;-72
2023/05/05 03:34:40;;;;;;;10.30;5.45;;;13.50;72.20;;;;;;5080267;28;20306;-72
2023/05/05 03:37:29;;;;;;;15.63;6.25;;;13.50;72.00;;;;;;5079510;28;20235;-72
2023/05/05 03:40:20;;;;;;;9.20;5.53;;;13.50;72.00;;;;;;5077290;28;20610;-69
2023/05/05 03:43:20;;;;;;;9.30;5.40;;;13.50;71.40;;;;;;5085211;28;20817;-70
2023/05/05 03:46:09;;;;;;;9.57;6.00;;;13.50;71.50;;;;;;5074657;28;20310;-73
2023/05/05 03:48:58;;;;;;;9.25;5.88;;;13.50;71.60;;;;;;5070641;28;20236;-72
2023/05/05 03:51:49;;;;;;;10.80;6.22;;;13.60;72.00;;;;;;5081867;28;20227;-72
2023/05/05 03:54:38;;;;;;;10.30;5.95;;;13.60;71.10;;;;;;5074045;28;20235;-71
2023/05/05 03:57:27;;;;;;;10.20;5.90;;;13.60;70.80;;;;;;5080477;28;20902;-70
2023/05/05 04:00:17;;;;;;;9.65;5.78;;;13.60;70.80;;;;;;5085485;28;20767;-72
2023/05/05 04:03:06;;;;;;;7.82;5.78;;;13.60;70.70;;;;;;5083976;28;20782;-71
2023/05/05 04:05:55;;;;;;;11.73;5.70;;;13.60;70.70;;;;;;5068826;28;20683;-70
2023/05/05 04:08:46;;;;;;;12.23;6.05;;;13.60;70.40;;;;;;5084433;28;20250;-71
2023/05/05 04:11:35;;;;;;;9.27;5.32;;;13.70;69.90;;;;;;5083906;28;20368;-72
2023/05/05 04:14:24;;;;;;;7.68;5.10;;;13.80;69.20;;;;;;5079749;28;20235;-71
2023/05/05 04:17:13;;;;;;;9.50;5.45;;;13.80;69.30;;;;;;5072496;28;20265;-69
2023/05/05 04:20:03;;;;;;;7.53;5.13;;;13.80;69.80;;;;;;5081606;28;20318;-72
2023/05/05 04:22:53;;;;;;;8.98;5.10;;;13.90;69.60;;;;;;5083690;28;20293;-72
2023/05/05 04:25:44;;;;;;;10.10;5.95;;;13.90;69.70;;;;;;5073341;28;20224;-72
2023/05/05 04:28:33;;;;;;;9.32;5.07;;;14.10;71.00;;;;;;5104273;27;20231;-71
2023/05/05 04:31:23;;;;;;;7.07;5.22;;;14.00;70.00;;;;;;5079169;28;20227;-71
2023/05/05 04:34:12;;;;;;;10.55;5.28;;;14.00;69.50;;;;;;5077810;28;20246;-72
2023/05/05 04:37:01;;;;;;;8.85;5.20;;;14.10;70.20;;;;;;5079730;28;20232;-71
2023/05/05 04:39:50;;;;;;;7.60;5.30;;;14.10;70.70;;;;;;5069938;28;20230;-70
2023/05/05 04:42:40;;;;;;;12.65;7.53;;;14.20;70.80;;;;;;5067570;28;20218;-71
2023/05/05 04:45:30;;;;;;;16.00;7.72;;;13.80;73.00;;;;;;5077693;28;20231;-71
2023/05/05 04:48:19;;;;;;;15.10;8.02;;;13.10;77.00;;;;;;5084651;28;20220;-71
2023/05/05 04:51:08;;;;;;;15.25;7.40;;;13.40;77.90;;;;;;5076125;28;20263;-70
2023/05/05 04:53:58;;;;;;;13.23;7.90;;;13.30;78.10;;;;;;5078210;28;20299;-69
2023/05/05 04:56:47;;;;;;;16.25;7.97;;;13.70;77.50;;;;;;5082151;28;20235;-71
2023/05/05 04:59:37;;;;;;;13.57;8.27;;;14.00;77.40;;;;;;5074852;28;20307;-70
2023/05/05 05:02:26;;;;;;;16.00;8.65;;;13.70;76.80;;;;;;5079383;28;20297;-70
2023/05/05 05:05:15;;;;;;;13.75;8.63;;;13.40;78.10;;;;;;5067195;28;20222;-71
2023/05/05 05:08:05;;;;;;;21.73;8.68;;;13.80;78.80;;;;;;5073081;28;20338;-71
2023/05/05 05:10:54;;;;;;;14.25;8.93;;;13.90;77.80;;;;;;5074001;28;20235;-71
2023/05/05 05:13:43;;;;;;;13.35;9.20;;;13.60;77.40;;;;;;5094983;28;20878;-71
2023/05/05 05:16:33;;;;;;;12.65;8.73;;;13.50;78.30;;;;;;5072863;28;20757;-70
2023/05/05 05:19:22;;;;;;;21.23;9.27;;;13.50;78.60;;;;;;5082421;28;20218;-71
2023/05/05 05:22:11;;;;;;;14.25;8.60;;;13.50;78.50;;;;;;5084453;28;20362;-69
2023/05/05 05:25:02;;;;;;;15.57;8.40;;;13.70;79.20;;;;;;5081443;28;20320;-71
2023/05/05 05:27:51;;;;;;;15.30;8.50;;;13.70;78.20;;;;;;5072127;28;20239;-69
2023/05/05 05:30:57;;;;;;;13.25;8.25;;;13.70;77.60;;;;;;5073204;28;20235;-71
2023/05/05 05:33:47;;;;;;;14.55;8.48;;;13.50;78.30;;;;;;5083338;28;21089;-71
2023/05/05 05:36:36;;;;;;;16.27;7.78;;;13.60;76.90;;;;;;5082920;28;20906;-71
2023/05/05 05:39:25;;;;;;;11.77;7.68;;;13.50;77.60;;;;;;5077348;28;20288;-71
2023/05/05 05:42:14;;;;;;;11.95;7.35;;;13.80;76.20;;;;;;5067410;28;20250;-71
2023/05/05 05:45:04;;;;;;;11.02;7.03;;;14.00;75.60;;;;;;5066939;28;20350;-72
2023/05/05 05:47:53;;;;;;;14.75;7.63;;;14.00;74.70;;;;;;5082309;28;21053;-72
2023/05/05 05:50:43;;;;;;;11.18;6.88;;;14.00;74.10;;;;;;5078319;28;20232;-71
2023/05/05 05:53:32;;;;;;;11.52;6.80;;;14.60;73.90;;;;;;5070583;28;20320;-71
2023/05/05 05:56:21;;;;;;;11.90;7.30;;;14.80;72.10;;;;;;5073913;28;20227;-71
2023/05/05 05:59:11;;;;;;;14.02;7.13;;;16.30;69.00;;;;;;5078165;28;20361;-72
2023/05/05 06:02:02;;;;;;;9.32;5.90;;;16.20;68.90;;;;;;5080987;28;20220;-72
2023/05/05 06:04:52;;;;;;;14.70;6.50;;;16.70;65.90;;;;;;5080160;28;20635;-72
2023/05/05 06:07:43;;;;;;;11.90;6.70;;;16.50;65.10;;;;;;5062593;28;20927;-71
2023/05/05 06:10:32;;;;;;;12.45;6.45;;;15.70;66.70;;;;;;5075997;28;20264;-71
2023/05/05 06:13:33;;;;;;;10.65;6.18;;;15.50;68.60;;;;;;5071292;28;20223;-71
2023/05/05 06:16:22;;;;;;;11.48;6.20;;;15.70;68.80;;;;;;5075154;28;20363;-72
2023/05/05 06:19:11;;;;;;;11.02;6.32;;;15.50;68.50;;;;;;5083347;28;20214;-73
2023/05/05 06:21:59;;;;;;;11.10;6.03;;;15.60;69.50;;;;;;5076478;28;20302;-71
2023/05/05 06:24:50;;;;;;;10.77;6.10;;;15.80;69.20;;;;;;5076128;28;20694;-71
2023/05/05 06:27:40;;;;;;;13.95;6.32;;;16.50;67.10;;;;;;5076034;28;20596;-71
2023/05/05 06:30:28;;;;;;;11.93;6.13;;;18.40;63.80;;;;;;5053801;28;20721;-72
2023/05/05 06:33:17;;;;;;;12.27;6.15;;;19.60;60.00;;;;;;5062604;28;20224;-71
2023/05/05 06:36:06;;;;;;;11.57;5.63;;;18.60;59.60;;;;;;5063464;28;20224;-71
2023/05/05 06:38:55;;;;;;;9.48;5.30;;;17.80;61.40;;;;;;5061133;28;20227;-72
2023/05/05 06:41:45;;;;;;;9.50;5.60;;;17.30;62.90;;;;;;5067523;28;20233;-72
2023/05/05 06:44:35;;;;;;;7.43;4.97;;;17.20;63.70;;;;;;5056216;28;20312;-71
2023/05/05 06:47:24;;;;;;;9.15;5.00;;;17.20;64.00;;;;;;5058283;28;20284;-72
2023/05/05 06:50:13;;;;;;;8.48;5.00;;;17.10;64.00;;;;;;5064600;28;20316;-71
2023/05/05 06:53:02;;;;;;;9.00;4.90;;;16.40;64.90;;;;;;5043337;28;20302;-72
2023/05/05 06:55:51;;;;;;;9.82;4.57;;;16.20;64.00;;;;;;5044207;28;20320;-72
2023/05/05 06:58:41;;;;;;;7.65;5.05;;;16.60;64.00;;;;;;5073500;28;20270;-73
2023/05/05 07:01:30;;;;;;;7.82;4.75;;;16.80;62.70;;;;;;5065326;28;20228;-71
2023/05/05 07:04:20;;;;;;;9.30;4.97;;;16.90;62.90;;;;;;5063537;28;20212;-71
2023/05/05 07:07:08;;;;;;;8.07;4.63;;;17.60;63.10;;;;;;5065433;28;20288;-71
2023/05/05 07:09:57;;;;;;;7.93;4.25;;;18.00;63.30;;;;;;5063529;28;20229;-71
2023/05/05 07:12:46;;;;;;;8.15;4.45;;;17.40;61.10;;;;;;5063592;28;20304;-71
2023/05/05 07:15:36;;;;;;;6.38;4.20;;;17.50;61.60;;;;;;5053070;28;20647;-72
2023/05/05 07:18:25;;;;;;;6.45;4.25;;;17.50;62.00;;;;;;5059122;28;20234;-72
2023/05/05 07:21:14;;;;;;;8.68;4.10;;;17.70;60.90;;;;;;5072530;28;20232;-71
2023/05/05 07:24:03;;;;;;;7.68;4.15;;;18.40;61.50;;;;;;5059708;28;20235;-71
2023/05/05 07:26:52;;;;;;;10.20;4.40;;;18.50;60.60;;;;;;5078027;28;20219;-71
2023/05/05 07:29:41;;;;;;;6.53;3.72;;;18.80;59.00;;;;;;5066580;28;20254;-71
2023/05/05 07:32:31;;;;;;;10.35;4.53;;;19.30;58.60;;;;;;5088173;28;20231;-69
2023/05/05 07:35:21;;;;;;;8.95;4.38;;;18.70;58.30;;;;;;5085562;28;20269;-70
2023/05/05 07:38:10;;;;;;;8.45;4.47;;;19.30;58.90;;;;;;5085999;28;20555;-69
2023/05/05 07:40:59;;;;;;;6.75;4.20;;;19.50;58.10;;;;;;5075950;28;20235;-72
2023/05/05 07:43:48;;;;;;;12.80;4.45;;;19.50;57.90;;;;;;5088629;28;20277;-72
2023/05/05 07:46:37;;;;;;;7.53;3.97;;;19.40;57.70;;;;;;5087737;28;20219;-70
2023/05/05 07:49:27;;;;;;;8.35;4.00;;;19.10;58.50;;;;;;5087874;28;20223;-72
2023/05/05 07:52:16;;;;;;;8.45;4.32;;;19.80;57.70;;;;;;5085247;28;20220;-71
2023/05/05 07:55:05;;;;;;;14.85;4.55;;;20.00;58.40;;;;;;5074513;28;20224;-72
2023/05/05 07:57:54;;;;;;;15.80;4.80;;;20.30;57.40;;;;;;5073114;28;20235;-72
2023/05/05 08:00:43;;;;;;;10.05;4.68;;;20.30;56.50;;;;;;5075923;28;20784;-72
2023/05/05 08:03:32;;;;;;;12.27;4.55;;;20.10;56.90;;;;;;5074707;28;20234;-73
2023/05/05 08:06:24;;;;;;;13.05;4.35;;;20.70;55.80;;;;;;5080650;28;20219;-73
2023/05/05 08:09:12;;;;;;;12.80;4.28;;;20.60;56.50;;;;;;5086817;28;20219;-72
2023/05/05 08:12:02;;;;;;;12.32;3.97;;;21.00;55.80;;;;;;5078075;28;20726;-72
2023/05/05 08:14:51;;;;;;;12.70;4.28;;;21.60;55.20;;;;;;5075789;28;20758;-71
2023/05/05 08:17:47;;;;;;;7.65;4.60;;;21.30;54.60;;;;;;5104263;27;20304;-72
2023/05/05 08:20:36;;;;;;;7.65;4.15;;;20.90;54.70;;;;;;5081636;28;20231;-70
2023/05/05 08:23:27;;;;;;;9.93;4.15;;;21.30;55.70;;;;;;5086175;28;20234;-70
2023/05/05 08:26:15;;;;;;;11.45;4.53;;;20.90;54.90;;;;;;5107347;27;20267;-70
2023/05/05 08:29:04;;;;;;;9.68;5.07;;;21.20;55.90;;;;;;5083654;28;20234;-72
2023/05/05 08:31:54;;;;;;;9.07;4.43;;;20.90;57.10;;;;;;5085411;28;20353;-72
2023/05/05 08:34:43;;;;;;;13.00;4.72;;;21.30;57.00;;;;;;5088519;28;20619;-71
2023/05/05 08:37:32;;;;;;;8.07;4.90;;;21.80;55.30;;;;;;5086408;28;20245;-69
2023/05/05 08:40:29;;;;;;;7.15;4.40;;;22.10;55.50;;;;;;5086496;28;20550;-72
2023/05/05 08:43:19;;;;;;;10.20;4.80;;;21.70;54.70;;;;;;5079086;28;20242;-73
2023/05/05 08:46:11;;;;;;;9.13;4.82;;;21.90;55.00;;;;;;5091465;27;20637;-73
2023/05/05 08:49:02;;;;;;;8.57;4.55;;;21.50;55.30;;;;;;5081205;28;20231;-72
2023/05/05 08:51:54;;;;;;;9.15;4.60;;;21.90;55.40;;;;;;5083604;28;20754;-71
2023/05/05 08:54:54;;;;;;;8.07;5.00;;;21.80;56.10;;;;;;5077419;28;20216;-72
2023/05/05 08:57:51;;;;;;;12.70;5.00;;;21.30;54.60;;;;;;5073018;28;20222;-71
2023/05/05 09:00:42;;;;;;;9.98;4.80;;;21.40;55.60;;;;;;5085188;28;20222;-72
2023/05/05 09:03:32;;;;;;;11.38;5.05;;;21.50;55.70;;;;;;5069997;28;20231;-72
2023/05/05 09:06:22;;;;;;;11.70;4.72;;;21.80;55.50;;;;;;5073852;28;20227;-72
2023/05/05 09:09:11;;;;;;;11.10;4.65;;;22.00;55.70;;;;;;5090697;28;20223;-73
2023/05/05 09:12:00;;;;;;;8.02;4.78;;;22.00;55.10;;;;;;5072543;28;20257;-71
2023/05/05 09:14:51;;;;;;;10.40;4.65;;;21.60;54.30;;;;;;5083936;28;20219;-71
2023/05/05 09:17:40;;;;;;;8.57;4.07;;;21.40;54.60;;;;;;5083876;28;20238;-71
2023/05/05 09:20:34;;;;;;;7.85;4.45;;;21.80;55.60;;;;;;5086206;28;20639;-72
2023/05/05 09:23:23;;;;;;;7.40;3.92;;;21.10;54.50;;;;;;5085174;28;20325;-72
2023/05/05 09:26:13;;;;;;;8.75;4.10;;;21.50;55.60;;;;;;5085209;28;20237;-72
2023/05/05 09:29:02;;;;;;;4.80;3.65;;;21.70;54.80;;;;;;5077427;28;20242;-71
2023/05/05 09:32:04;;;;;;;7.63;3.88;;;22.50;53.80;;;;;;5083860;28;20406;-73
2023/05/05 09:35:00;;;;;;;6.53;3.90;;;22.50;52.70;;;;;;5084715;28;20241;-72
2023/05/05 09:37:49;;;;;;;8.15;3.72;;;22.50;52.80;;;;;;5068499;28;20224;-73
2023/05/05 09:40:46;;;;;;;8.90;3.67;;;22.10;53.80;;;;;;5076026;28;20219;-73
2023/05/05 09:43:51;;;;;;;8.68;4.20;;;22.30;52.80;;;;;;5085550;28;20212;-71
2023/05/05 09:46:50;;;;;;;13.10;3.42;;;22.20;52.70;;;;;;5077641;28;20221;-72
2023/05/05 09:49:40;;;;;;;10.80;3.72;;;22.80;52.90;;;;;;5082001;28;20260;-72
2023/05/05 09:52:29;;;;;;;9.48;3.60;;;23.30;52.80;;;;;;5077327;28;20228;-73
2023/05/05 09:55:18;;;;;;;7.03;3.60;;;23.60;52.20;;;;;;5083398;28;20224;-71
2023/05/05 09:58:20;;;;;;;6.75;3.33;;;23.40;51.90;;;;;;5083517;28;20705;-72
2023/05/05 10:01:22;;;;;;;11.52;3.53;;;24.20;51.10;;;;;;5077360;28;20324;-70
2023/05/05 10:04:24;;;;;;;6.10;3.47;;;22.70;52.90;;;;;;5083020;28;20544;-72
2023/05/05 10:07:23;;;;;;;6.22;3.30;;;23.20;52.70;;;;;;5066935;28;20231;-72
2023/05/05 10:10:14;;;;;;;7.45;3.33;;;24.00;53.70;;;;;;5085266;28;20227;-72
2023/05/05 10:13:04;;;;;;;4.50;2.95;;;25.30;51.00;;;;;;5082138;28;20366;-72
2023/05/05 10:15:54;;;;;;;4.30;2.92;;;27.30;48.00;;;;;;5074120;28;20227;-70
2023/05/05 10:18:46;;;;;;;4.32;3.33;;;28.00;47.40;;;;;;5079247;28;20230;-71
2023/05/05 10:21:40;;;;;;;8.38;3.50;;;29.80;47.00;;;;;;5076704;28;20214;-72
2023/05/05 10:24:38;;;;;;;6.70;3.58;;;30.60;44.10;;;;;;5087172;28;20224;-71
2023/05/05 10:27:29;;;;;;;13.95;3.72;;;28.80;45.00;;;;;;5085784;28;20403;-72
2023/05/05 10:30:22;;;;;;;6.65;3.40;;;24.90;48.30;;;;;;5089006;28;20235;-72
2023/05/05 10:33:16;;;;;;;11.23;3.60;;;24.60;51.20;;;;;;5087725;28;20238;-72
2023/05/05 10:36:20;;;;;;;7.25;2.90;;;25.40;51.00;;;;;;5089174;28;20219;-72
2023/05/05 10:39:09;;;;;;;8.75;3.40;;;27.50;49.50;;;;;;5085363;28;20710;-71
2023/05/05 10:42:02;;;;;;;9.80;3.17;;;26.30;49.30;;;;;;5084804;28;20302;-72
2023/05/05 10:44:51;;;;;;;5.07;2.88;;;24.70;50.20;;;;;;5092340;28;20318;-72
2023/05/05 10:47:40;;;;;;;10.27;3.30;;;25.20;50.90;;;;;;5083017;28;20303;-72
2023/05/05 10:50:33;;;;;;;11.02;3.17;;;24.30;51.40;;;;;;5074758;28;20277;-68
2023/05/05 10:53:26;;;;;;;5.60;2.90;;;24.10;52.00;;;;;;5071220;28;20235;-72
2023/05/05 10:56:24;;;;;;;4.93;3.22;;;24.20;51.50;;;;;;5078067;28;20379;-72
2023/05/05 10:59:41;;;;;;;7.55;2.90;;;23.60;52.70;;;;;;5084889;28;20223;-73
2023/05/05 11:02:30;;;;;;;11.00;2.90;;;23.40;53.30;;;;;;5083810;28;20320;-73
2023/05/05 11:05:21;;;;;;;6.50;3.03;;;23.70;52.30;;;;;;5072462;28;20707;-72
2023/05/05 11:08:25;;;;;;;16.77;3.53;;;23.40;53.10;;;;;;5081322;28;20304;-72
2023/05/05 11:11:14;;;;;;;11.38;3.40;;;23.20;53.20;;;;;;5080753;28;20429;-74
2023/05/05 11:14:21;;;;;;;11.30;3.22;;;24.60;52.00;;;;;;5067475;28;20267;-71
2023/05/05 11:17:42;;;;;;;5.07;2.72;;;25.00;51.30;;;;;;5086502;28;20460;-71
2023/05/05 11:21:07;;;;;;;27.63;3.78;;;25.20;50.60;;;;;;5085921;28;20721;-72
2023/05/05 11:24:28;;;;;;;12.10;2.90;;;25.90;50.90;;;;;;5080154;28;20231;-72
2023/05/05 11:27:17;;;;;;;23.50;3.10;;;27.60;49.80;;;;;;5086507;28;20326;-72
2023/05/05 11:30:10;;;;;;;12.95;3.00;;;29.70;48.10;;;;;;5080311;28;20282;-73
2023/05/05 11:33:24;;;;;;;4.97;2.95;;;29.60;45.90;;;;;;5111343;27;20602;-72
2023/05/05 11:36:16;;;;;;;6.53;2.80;;;29.00;46.30;;;;;;5091374;28;20685;-72
2023/05/05 11:39:09;;;;;;;6.95;2.60;;;28.70;47.10;;;;;;5081567;28;20452;-69
2023/05/05 11:42:23;;;;;;;6.97;3.13;;;27.10;48.40;;;;;;5084738;28;20230;-72
2023/05/05 11:45:23;;;;;;;7.82;2.75;;;26.80;49.70;;;;;;5076059;28;20230;-71
2023/05/05 11:48:24;;;;;;;7.97;3.03;;;27.10;48.70;;;;;;5088002;27;20222;-71
2023/05/05 11:51:16;;;;;;;12.40;2.97;;;25.10;50.60;;;;;;5088125;28;20223;-70
2023/05/05 11:54:05;;;;;;;8.27;3.75;;;24.20;53.20;;;;;;5089027;28;20235;-71
2023/05/05 11:56:54;;;;;;;6.30;3.05;;;23.70;53.90;;;;;;5084200;28;20231;-70
2023/05/05 11:59:55;;;;;;;6.60;3.15;;;23.20;55.10;;;;;;5080699;28;20238;-70
2023/05/05 12:02:43;;;;;;;7.18;3.10;;;23.50;55.20;;;;;;5071726;28;20235;-70
2023/05/05 12:05:32;;;;;;;7.35;2.90;;;22.10;56.70;;;;;;5085882;28;20231;-71
2023/05/05 12:08:26;;;;;;;6.85;2.90;;;21.80;56.50;;;;;;5084881;28;20302;-71
2023/05/05 12:11:14;;;;;;;10.93;2.88;;;21.50;57.00;;;;;;5088823;28;20281;-71
2023/05/05 12:14:10;;;;;;;5.38;2.95;;;21.10;58.10;;;;;;5088002;28;20239;-71
2023/05/05 12:17:01;;;;;;;6.72;2.78;;;22.00;57.70;;;;;;5079089;28;20239;-71
2023/05/05 12:19:52;;;;;;;7.43;2.67;;;24.20;55.30;;;;;;5076758;28;20215;-71
2023/05/05 12:22:41;;;;;;;5.72;3.15;;;24.60;53.60;;;;;;5083460;28;20222;-71
2023/05/05 12:25:37;;;;;;;13.25;2.50;;;26.40;51.00;;;;;;5079666;28;20284;-71
2023/05/05 12:28:44;;;;;;;6.13;2.78;;;24.30;52.40;;;;;;5070056;28;20357;-71
2023/05/05 12:31:36;;;;;;;10.00;2.85;;;23.10;54.70;;;;;;5088714;28;20363;-71
2023/05/05 12:34:26;;;;;;;7.57;2.97;;;22.20;56.30;;;;;;5069972;28;20295;-71
2023/05/05 12:37:17;;;;;;;8.50;2.83;;;21.30;57.90;;;;;;5079736;28;20302;-71
2023/05/05 12:40:08;;;;;;;4.75;2.60;;;20.90;58.90;;;;;;5075812;28;20231;-72
2023/05/05 12:42:59;;;;;;;5.05;2.40;;;20.30;59.90;;;;;;5082037;28;20644;-72
2023/05/05 12:45:48;;;;;;;6.25;3.05;;;20.00;60.30;;;;;;5083589;28;20246;-71
2023/05/05 12:48:38;;;;;;;6.82;2.88;;;19.30;62.20;;;;;;5084443;28;20392;-72
2023/05/05 12:51:27;;;;;;;7.18;2.33;;;19.50;62.30;;;;;;5078140;28;20235;-71
2023/05/05 12:54:16;;;;;;;8.20;3.28;;;19.30;62.90;;;;;;5068813;28;20276;-72
2023/05/05 12:57:11;;;;;;;5.38;2.80;;;19.70;61.80;;;;;;5078540;28;20404;-72
2023/05/05 13:00:13;;;;;;;5.82;2.83;;;19.80;61.80;;;;;;5075666;28;20230;-71
2023/05/05 13:03:03;;;;;;;4.93;2.60;;;20.00;62.00;;;;;;5071919;28;20310;-72
2023/05/05 13:05:52;;;;;;;6.63;2.83;;;19.40;62.30;;;;;;5082535;28;20492;-73
2023/05/05 13:08:43;;;;;;;7.95;2.95;;;19.40;63.20;;;;;;5070415;28;20730;-72
2023/05/05 13:11:36;;;;;;;4.95;2.72;;;18.70;63.30;;;;;;5074854;28;20873;-71
2023/05/05 13:14:25;;;;;;;7.82;2.58;;;18.40;65.20;;;;;;5079753;28;20259;-71
2023/05/05 13:17:15;;;;;;;5.32;2.55;;;18.70;65.50;;;;;;5079592;28;20300;-71
2023/05/05 13:20:05;;;;;;;7.40;2.78;;;18.50;65.50;;;;;;5084186;28;20227;-71
2023/05/05 13:22:54;;;;;;;6.10;2.78;;;18.80;64.90;;;;;;5082286;28;20292;-72
2023/05/05 13:25:43;;;;;;;8.48;2.92;;;19.00;64.50;;;;;;5071551;28;20228;-72
2023/05/05 13:28:32;;;;;;;5.78;3.10;;;18.60;65.30;;;;;;5072762;28;20242;-71
2023/05/05 13:31:20;;;;;;;5.55;2.50;;;19.00;64.50;;;;;;5083029;28;20231;-71
2023/05/05 13:34:11;;;;;;;7.07;2.88;;;19.20;65.10;;;;;;5074938;28;20963;-71
2023/05/05 13:37:00;;;;;;;8.25;2.70;;;18.40;64.90;;;;;;5075718;28;20288;-71
2023/05/05 13:39:49;;;;;;;10.82;3.13;;;18.20;65.70;;;;;;5077284;28;20710;-72
2023/05/05 13:42:38;;;;;;;6.85;2.45;;;18.20;66.70;;;;;;5083783;27;20227;-69
2023/05/05 13:45:26;;;;;;;7.78;2.42;;;18.30;66.30;;;;;;5073267;28;20224;-71
2023/05/05 13:48:15;;;;;;;6.72;2.30;;;18.00;67.50;;;;;;5076461;28;20242;-72
2023/05/05 13:51:05;;;;;;;9.88;2.60;;;18.00;67.10;;;;;;5080096;28;20224;-72
2023/05/05 13:53:54;;;;;;;6.60;2.58;;;17.60;66.80;;;;;;5075225;28;20611;-71
2023/05/05 13:56:43;;;;;;;4.95;2.05;;;17.70;67.50;;;;;;5073261;28;20319;-72
2023/05/05 13:59:32;;;;;;;5.25;2.70;;;17.50;67.90;;;;;;5081896;28;20219;-72
2023/05/05 14:02:20;;;;;;;4.90;2.42;;;17.00;68.30;;;;;;5077875;28;20251;-71
2023/05/05 14:05:10;;;;;;;4.43;2.50;;;16.90;69.30;;;;;;5074576;28;20721;-73
2023/05/05 14:08:00;;;;;;;6.10;2.58;;;16.70;70.00;;;;;;5070014;28;20309;-72
2023/05/05 14:10:49;;;;;;;6.72;2.90;;;16.80;69.40;;;;;;5071167;28;20630;-72
2023/05/05 14:13:39;;;;;;;6.10;2.90;;;16.80;69.70;;;;;;5071343;28;20242;-72
2023/05/05 14:16:28;;;;;;;5.47;2.53;;;16.80;69.90;;;;;;5074978;28;20710;-72
2023/05/05 14:19:17;;;;;;;3.97;2.40;;;17.10;69.80;;;;;;5076937;28;20234;-73
2023/05/05 14:22:06;;;;;;;4.97;2.72;;;17.20;69.00;;;;;;5082619;28;20223;-71
2023/05/05 14:24:56;;;;;;;5.18;2.63;;;17.20;69.40;;;;;;5090481;28;20235;-73
2023/05/05 14:27:45;;;;;;;6.03;2.88;;;17.30;69.50;;;;;;5082241;28;20207;-72
2023/05/05 14:30:33;;;;;;;4.97;2.35;;;16.80;69.30;;;;;;5083031;28;20219;-72
2023/05/05 14:33:22;;;;;;;11.50;2.70;;;16.80;69.40;;;;;;5076370;28;20249;-71
2023/05/05 14:36:11;;;;;;;6.97;2.20;;;16.90;69.60;;;;;;5090648;28;20393;-70
2023/05/05 14:39:00;;;;;;;5.65;2.42;;;16.30;69.60;;;;;;5085800;28;20571;-72
2023/05/05 14:41:50;;;;;;;4.28;2.60;;;16.20;70.30;;;;;;5066887;28;20636;-72
2023/05/05 14:44:39;;;;;;;6.70;2.20;;;16.00;70.90;;;;;;5075277;28;20756;-72
2023/05/05 14:47:27;;;;;;;4.72;2.08;;;16.10;70.60;;;;;;5064587;28;20236;-72
2023/05/05 14:50:16;;;;;;;7.20;1.90;;;16.50;70.80;;;;;;5077682;28;20787;-71